sensor_id;sensor_type;location;lat;lon;timestamp;P1;durP1;ratioP1;P2;durP2;ratioP2
59006;SDS011;44792;52.760;6.726;2023-04-16T00:31:26;55.17;;;21.73;;
59006;SDS011;44792;52.760;6.726;2023-04-16T00:33:56;57.63;;;23.75;;
59006;SDS011;44792;52.760;6.726;2023-04-16T00:36:22;61.40;;;23.33;;
59006;SDS011;44792;52.760;6.726;2023-04-16T00:38:49;56.88;;;24.33;;
59006;SDS011;44792;52.760;6.726;2023-04-16T00:41:15;67.15;;;25.00;;
59006;SDS011;44792;52.760;6.726;2023-04-16T00:43:41;62.83;;;25.60;;
59006;SDS011;44792;52.760;6.726;2023-04-16T00:46:07;67.38;;;25.55;;
59006;SDS011;44792;52.760;6.726;2023-04-16T00:48:33;58.30;;;23.42;;
59006;SDS011;44792;52.760;6.726;2023-04-16T00:51:04;66.75;;;27.02;;
59006;SDS011;44792;52.760;6.726;2023-04-16T00:53:31;52.90;;;24.27;;
59006;SDS011;44792;52.760;6.726;2023-04-16T00:55:58;63.95;;;26.27;;
59006;SDS011;44792;52.760;6.726;2023-04-16T00:58:26;57.42;;;26.27;;
59006;SDS011;44792;52.760;6.726;2023-04-16T01:00:53;66.03;;;26.25;;
59006;SDS011;44792;52.760;6.726;2023-04-16T01:03:19;58.17;;;26.25;;
59006;SDS011;44792;52.760;6.726;2023-04-16T01:05:45;58.28;;;26.48;;
59006;SDS011;44792;52.760;6.726;2023-04-16T01:08:20;60.55;;;26.05;;
59006;SDS011;44792;52.760;6.726;2023-04-16T01:10:46;65.78;;;24.98;;
59006;SDS011;44792;52.760;6.726;2023-04-16T01:13:11;59.03;;;26.55;;
59006;SDS011;44792;52.760;6.726;2023-04-16T01:15:37;59.25;;;26.35;;
59006;SDS011;44792;52.760;6.726;2023-04-16T01:18:15;57.30;;;26.63;;
59006;SDS011;44792;52.760;6.726;2023-04-16T01:20:43;57.42;;;23.92;;
59006;SDS011;44792;52.760;6.726;2023-04-16T01:23:09;59.60;;;27.35;;
59006;SDS011;44792;52.760;6.726;2023-04-16T01:25:36;53.25;;;25.35;;
59006;SDS011;44792;52.760;6.726;2023-04-16T01:28:02;53.42;;;25.30;;
59006;SDS011;44792;52.760;6.726;2023-04-16T01:30:27;57.15;;;26.77;;
59006;SDS011;44792;52.760;6.726;2023-04-16T01:32:53;57.38;;;26.83;;
59006;SDS011;44792;52.760;6.726;2023-04-16T01:35:19;56.10;;;25.50;;
59006;SDS011;44792;52.760;6.726;2023-04-16T01:37:45;52.15;;;25.00;;
59006;SDS011;44792;52.760;6.726;2023-04-16T01:40:10;50.95;;;24.63;;
59006;SDS011;44792;52.760;6.726;2023-04-16T01:42:37;47.30;;;24.10;;
59006;SDS011;44792;52.760;6.726;2023-04-16T01:45:03;59.40;;;26.35;;
59006;SDS011;44792;52.760;6.726;2023-04-16T01:47:29;56.05;;;25.92;;
59006;SDS011;44792;52.760;6.726;2023-04-16T01:49:55;61.50;;;27.83;;
59006;SDS011;44792;52.760;6.726;2023-04-16T01:52:20;57.03;;;26.35;;
59006;SDS011;44792;52.760;6.726;2023-04-16T01:54:46;51.78;;;24.48;;
59006;SDS011;44792;52.760;6.726;2023-04-16T01:57:12;60.05;;;26.42;;
59006;SDS011;44792;52.760;6.726;2023-04-16T01:59:38;48.58;;;24.02;;
59006;SDS011;44792;52.760;6.726;2023-04-16T02:02:13;51.35;;;25.15;;
59006;SDS011;44792;52.760;6.726;2023-04-16T02:04:41;55.63;;;25.23;;
59006;SDS011;44792;52.760;6.726;2023-04-16T02:07:08;57.72;;;24.55;;
59006;SDS011;44792;52.760;6.726;2023-04-16T02:09:34;50.25;;;23.88;;
59006;SDS011;44792;52.760;6.726;2023-04-16T02:12:01;55.90;;;25.80;;
59006;SDS011;44792;52.760;6.726;2023-04-16T02:14:27;50.30;;;24.95;;
59006;SDS011;44792;52.760;6.726;2023-04-16T02:16:53;57.38;;;25.42;;
59006;SDS011;44792;52.760;6.726;2023-04-16T02:19:19;51.78;;;25.80;;
59006;SDS011;44792;52.760;6.726;2023-04-16T02:21:45;52.97;;;26.35;;
59006;SDS011;44792;52.760;6.726;2023-04-16T02:24:12;56.13;;;26.08;;
59006;SDS011;44792;52.760;6.726;2023-04-16T02:26:38;53.38;;;25.55;;
59006;SDS011;44792;52.760;6.726;2023-04-16T02:29:04;58.30;;;25.08;;
59006;SDS011;44792;52.760;6.726;2023-04-16T02:31:29;53.50;;;23.42;;
59006;SDS011;44792;52.760;6.726;2023-04-16T02:33:55;57.35;;;26.02;;
59006;SDS011;44792;52.760;6.726;2023-04-16T02:36:21;55.08;;;25.13;;
59006;SDS011;44792;52.760;6.726;2023-04-16T02:38:47;52.50;;;26.08;;
59006;SDS011;44792;52.760;6.726;2023-04-16T02:41:13;58.15;;;27.02;;
59006;SDS011;44792;52.760;6.726;2023-04-16T02:43:39;50.40;;;25.02;;
59006;SDS011;44792;52.760;6.726;2023-04-16T02:46:04;54.38;;;26.27;;
59006;SDS011;44792;52.760;6.726;2023-04-16T02:48:30;53.25;;;23.60;;
59006;SDS011;44792;52.760;6.726;2023-04-16T02:50:56;53.60;;;24.88;;
59006;SDS011;44792;52.760;6.726;2023-04-16T02:53:22;57.45;;;26.35;;
59006;SDS011;44792;52.760;6.726;2023-04-16T02:55:52;54.55;;;24.63;;
59006;SDS011;44792;52.760;6.726;2023-04-16T02:58:19;48.13;;;24.25;;
59006;SDS011;44792;52.760;6.726;2023-04-16T03:00:45;54.08;;;23.77;;
59006;SDS011;44792;52.760;6.726;2023-04-16T03:03:11;52.13;;;24.83;;
59006;SDS011;44792;52.760;6.726;2023-04-16T03:05:37;68.63;;;26.88;;
59006;SDS011;44792;52.760;6.726;2023-04-16T03:08:03;51.95;;;26.08;;
59006;SDS011;44792;52.760;6.726;2023-04-16T03:10:29;57.33;;;25.60;;
59006;SDS011;44792;52.760;6.726;2023-04-16T03:12:56;52.50;;;26.35;;
59006;SDS011;44792;52.760;6.726;2023-04-16T03:15:22;54.53;;;27.98;;
59006;SDS011;44792;52.760;6.726;2023-04-16T03:17:48;49.67;;;25.58;;
59006;SDS011;44792;52.760;6.726;2023-04-16T03:20:14;56.97;;;26.40;;
59006;SDS011;44792;52.760;6.726;2023-04-16T03:22:41;59.85;;;26.15;;
59006;SDS011;44792;52.760;6.726;2023-04-16T03:25:07;58.70;;;26.67;;
59006;SDS011;44792;52.760;6.726;2023-04-16T03:27:33;52.63;;;26.15;;
59006;SDS011;44792;52.760;6.726;2023-04-16T03:29:59;62.00;;;26.80;;
59006;SDS011;44792;52.760;6.726;2023-04-16T03:32:25;52.97;;;26.02;;
59006;SDS011;44792;52.760;6.726;2023-04-16T03:34:51;51.13;;;26.20;;
59006;SDS011;44792;52.760;6.726;2023-04-16T03:37:16;58.28;;;27.58;;
59006;SDS011;44792;52.760;6.726;2023-04-16T03:39:42;52.70;;;25.10;;
59006;SDS011;44792;52.760;6.726;2023-04-16T03:42:08;49.60;;;24.48;;
59006;SDS011;44792;52.760;6.726;2023-04-16T03:44:33;59.33;;;25.27;;
59006;SDS011;44792;52.760;6.726;2023-04-16T03:46:59;51.65;;;25.70;;
59006;SDS011;44792;52.760;6.726;2023-04-16T03:49:25;54.33;;;22.77;;
59006;SDS011;44792;52.760;6.726;2023-04-16T03:51:51;53.05;;;25.75;;
59006;SDS011;44792;52.760;6.726;2023-04-16T03:54:16;51.65;;;25.83;;
59006;SDS011;44792;52.760;6.726;2023-04-16T03:56:42;55.47;;;24.83;;
59006;SDS011;44792;52.760;6.726;2023-04-16T03:59:08;50.42;;;23.95;;
59006;SDS011;44792;52.760;6.726;2023-04-16T04:01:34;52.78;;;26.17;;
59006;SDS011;44792;52.760;6.726;2023-04-16T04:04:00;55.25;;;26.08;;
59006;SDS011;44792;52.760;6.726;2023-04-16T04:06:25;51.95;;;23.83;;
59006;SDS011;44792;52.760;6.726;2023-04-16T04:08:52;51.38;;;24.08;;
59006;SDS011;44792;52.760;6.726;2023-04-16T04:11:17;47.95;;;23.50;;
59006;SDS011;44792;52.760;6.726;2023-04-16T04:13:43;52.33;;;26.13;;
59006;SDS011;44792;52.760;6.726;2023-04-16T04:16:09;56.35;;;24.27;;
59006;SDS011;44792;52.760;6.726;2023-04-16T04:18:35;54.60;;;24.60;;
59006;SDS011;44792;52.760;6.726;2023-04-16T04:21:04;56.25;;;26.10;;
59006;SDS011;44792;52.760;6.726;2023-04-16T04:23:30;51.42;;;23.08;;
59006;SDS011;44792;52.760;6.726;2023-04-16T04:25:56;63.53;;;26.80;;
59006;SDS011;44792;52.760;6.726;2023-04-16T04:28:21;53.63;;;25.08;;
59006;SDS011;44792;52.760;6.726;2023-04-16T04:30:47;51.25;;;24.70;;
59006;SDS011;44792;52.760;6.726;2023-04-16T04:33:13;54.97;;;26.05;;
59006;SDS011;44792;52.760;6.726;2023-04-16T04:35:39;52.83;;;25.92;;
59006;SDS011;44792;52.760;6.726;2023-04-16T04:38:05;55.92;;;26.10;;
59006;SDS011;44792;52.760;6.726;2023-04-16T04:40:30;54.13;;;26.75;;
59006;SDS011;44792;52.760;6.726;2023-04-16T04:42:56;52.35;;;25.90;;
59006;SDS011;44792;52.760;6.726;2023-04-16T04:45:22;55.10;;;25.88;;
59006;SDS011;44792;52.760;6.726;2023-04-16T04:47:51;55.85;;;26.52;;
59006;SDS011;44792;52.760;6.726;2023-04-16T04:50:17;57.80;;;26.05;;
59006;SDS011;44792;52.760;6.726;2023-04-16T04:52:42;49.55;;;25.58;;
59006;SDS011;44792;52.760;6.726;2023-04-16T04:55:08;57.70;;;26.80;;
59006;SDS011;44792;52.760;6.726;2023-04-16T04:57:34;52.20;;;25.73;;
59006;SDS011;44792;52.760;6.726;2023-04-16T05:00:00;60.47;;;27.00;;
59006;SDS011;44792;52.760;6.726;2023-04-16T05:02:27;51.28;;;23.48;;
59006;SDS011;44792;52.760;6.726;2023-04-16T05:04:53;49.70;;;26.00;;
59006;SDS011;44792;52.760;6.726;2023-04-16T05:07:19;45.97;;;23.75;;
59006;SDS011;44792;52.760;6.726;2023-04-16T05:09:46;52.53;;;25.27;;
59006;SDS011;44792;52.760;6.726;2023-04-16T05:12:11;52.80;;;26.88;;
59006;SDS011;44792;52.760;6.726;2023-04-16T05:14:37;53.38;;;25.98;;
59006;SDS011;44792;52.760;6.726;2023-04-16T05:17:02;54.03;;;25.00;;
59006;SDS011;44792;52.760;6.726;2023-04-16T05:19:28;56.38;;;25.10;;
59006;SDS011;44792;52.760;6.726;2023-04-16T05:21:54;60.50;;;28.02;;
59006;SDS011;44792;52.760;6.726;2023-04-16T05:24:21;54.05;;;26.10;;
59006;SDS011;44792;52.760;6.726;2023-04-16T05:26:47;56.28;;;25.65;;
59006;SDS011;44792;52.760;6.726;2023-04-16T05:29:12;54.55;;;24.83;;
59006;SDS011;44792;52.760;6.726;2023-04-16T05:31:38;54.60;;;25.98;;
59006;SDS011;44792;52.760;6.726;2023-04-16T05:34:04;52.22;;;25.25;;
59006;SDS011;44792;52.760;6.726;2023-04-16T05:36:29;53.83;;;24.98;;
59006;SDS011;44792;52.760;6.726;2023-04-16T05:38:55;55.17;;;26.30;;
59006;SDS011;44792;52.760;6.726;2023-04-16T05:41:21;59.78;;;25.42;;
59006;SDS011;44792;52.760;6.726;2023-04-16T05:43:47;48.90;;;25.83;;
59006;SDS011;44792;52.760;6.726;2023-04-16T05:46:13;53.28;;;25.35;;
59006;SDS011;44792;52.760;6.726;2023-04-16T05:48:38;54.70;;;25.45;;
59006;SDS011;44792;52.760;6.726;2023-04-16T05:51:04;59.38;;;26.90;;
59006;SDS011;44792;52.760;6.726;2023-04-16T05:53:30;59.70;;;25.13;;
59006;SDS011;44792;52.760;6.726;2023-04-16T05:55:55;55.30;;;25.08;;
59006;SDS011;44792;52.760;6.726;2023-04-16T05:58:21;64.13;;;25.60;;
59006;SDS011;44792;52.760;6.726;2023-04-16T06:00:47;61.15;;;24.08;;
59006;SDS011;44792;52.760;6.726;2023-04-16T06:03:12;53.33;;;24.27;;
59006;SDS011;44792;52.760;6.726;2023-04-16T06:05:38;53.35;;;24.00;;
59006;SDS011;44792;52.760;6.726;2023-04-16T06:08:04;44.95;;;24.08;;
59006;SDS011;44792;52.760;6.726;2023-04-16T06:10:30;46.33;;;23.50;;
59006;SDS011;44792;52.760;6.726;2023-04-16T06:12:55;50.83;;;24.42;;
59006;SDS011;44792;52.760;6.726;2023-04-16T06:15:21;47.00;;;24.38;;
59006;SDS011;44792;52.760;6.726;2023-04-16T06:17:48;52.08;;;24.02;;
59006;SDS011;44792;52.760;6.726;2023-04-16T06:20:14;46.55;;;21.83;;
59006;SDS011;44792;52.760;6.726;2023-04-16T06:22:40;50.53;;;24.83;;
59006;SDS011;44792;52.760;6.726;2023-04-16T06:25:05;55.70;;;26.17;;
59006;SDS011;44792;52.760;6.726;2023-04-16T06:27:31;51.50;;;22.95;;
59006;SDS011;44792;52.760;6.726;2023-04-16T06:29:57;53.10;;;24.13;;
59006;SDS011;44792;52.760;6.726;2023-04-16T06:32:23;50.67;;;22.55;;
59006;SDS011;44792;52.760;6.726;2023-04-16T06:34:49;40.95;;;22.48;;
59006;SDS011;44792;52.760;6.726;2023-04-16T06:37:15;43.95;;;21.75;;
59006;SDS011;44792;52.760;6.726;2023-04-16T06:39:40;49.42;;;23.27;;
59006;SDS011;44792;52.760;6.726;2023-04-16T06:42:06;46.72;;;22.42;;
59006;SDS011;44792;52.760;6.726;2023-04-16T06:44:32;46.38;;;23.10;;
59006;SDS011;44792;52.760;6.726;2023-04-16T06:46:58;42.08;;;22.52;;
59006;SDS011;44792;52.760;6.726;2023-04-16T06:49:23;47.60;;;23.02;;
59006;SDS011;44792;52.760;6.726;2023-04-16T06:51:49;54.30;;;25.27;;
59006;SDS011;44792;52.760;6.726;2023-04-16T06:54:15;58.30;;;23.50;;
59006;SDS011;44792;52.760;6.726;2023-04-16T06:56:41;44.22;;;23.35;;
59006;SDS011;44792;52.760;6.726;2023-04-16T06:59:06;53.92;;;22.42;;
59006;SDS011;44792;52.760;6.726;2023-04-16T07:01:32;57.13;;;24.77;;
59006;SDS011;44792;52.760;6.726;2023-04-16T07:03:58;53.15;;;23.25;;
59006;SDS011;44792;52.760;6.726;2023-04-16T07:06:24;44.97;;;22.00;;
59006;SDS011;44792;52.760;6.726;2023-04-16T07:08:51;46.30;;;21.75;;
59006;SDS011;44792;52.760;6.726;2023-04-16T07:11:17;48.75;;;22.63;;
59006;SDS011;44792;52.760;6.726;2023-04-16T07:13:43;45.95;;;21.70;;
59006;SDS011;44792;52.760;6.726;2023-04-16T07:16:09;45.13;;;23.45;;
59006;SDS011;44792;52.760;6.726;2023-04-16T07:18:34;45.83;;;22.08;;
59006;SDS011;44792;52.760;6.726;2023-04-16T07:21:00;49.40;;;24.20;;
59006;SDS011;44792;52.760;6.726;2023-04-16T07:23:26;45.38;;;21.48;;
59006;SDS011;44792;52.760;6.726;2023-04-16T07:25:52;51.28;;;23.52;;
59006;SDS011;44792;52.760;6.726;2023-04-16T07:28:17;46.10;;;23.30;;
59006;SDS011;44792;52.760;6.726;2023-04-16T07:30:44;49.05;;;22.98;;
59006;SDS011;44792;52.760;6.726;2023-04-16T07:33:10;53.28;;;22.20;;
59006;SDS011;44792;52.760;6.726;2023-04-16T07:35:35;51.28;;;23.90;;
59006;SDS011;44792;52.760;6.726;2023-04-16T07:38:01;48.75;;;23.38;;
59006;SDS011;44792;52.760;6.726;2023-04-16T07:40:27;46.72;;;22.30;;
59006;SDS011;44792;52.760;6.726;2023-04-16T07:42:53;43.47;;;22.92;;
59006;SDS011;44792;52.760;6.726;2023-04-16T07:45:20;49.70;;;24.38;;
59006;SDS011;44792;52.760;6.726;2023-04-16T07:47:45;47.20;;;22.73;;
59006;SDS011;44792;52.760;6.726;2023-04-16T07:50:12;42.75;;;22.52;;
59006;SDS011;44792;52.760;6.726;2023-04-16T07:52:37;45.60;;;21.70;;
59006;SDS011;44792;52.760;6.726;2023-04-16T07:55:06;47.67;;;21.90;;
59006;SDS011;44792;52.760;6.726;2023-04-16T07:57:34;48.35;;;22.60;;
59006;SDS011;44792;52.760;6.726;2023-04-16T08:00:00;42.42;;;20.45;;
59006;SDS011;44792;52.760;6.726;2023-04-16T08:02:31;48.53;;;24.03;;
59006;SDS011;44792;52.760;6.726;2023-04-16T08:04:57;42.40;;;21.90;;
59006;SDS011;44792;52.760;6.726;2023-04-16T08:07:23;44.95;;;22.35;;
59006;SDS011;44792;52.760;6.726;2023-04-16T08:09:50;42.78;;;21.42;;
59006;SDS011;44792;52.760;6.726;2023-04-16T08:12:16;43.75;;;22.13;;
59006;SDS011;44792;52.760;6.726;2023-04-16T08:14:43;46.15;;;22.65;;
59006;SDS011;44792;52.760;6.726;2023-04-16T08:17:13;43.58;;;22.42;;
59006;SDS011;44792;52.760;6.726;2023-04-16T08:19:39;46.95;;;21.05;;
59006;SDS011;44792;52.760;6.726;2023-04-16T08:22:05;41.67;;;21.67;;
59006;SDS011;44792;52.760;6.726;2023-04-16T08:24:30;39.28;;;20.13;;
59006;SDS011;44792;52.760;6.726;2023-04-16T08:26:56;41.97;;;21.38;;
59006;SDS011;44792;52.760;6.726;2023-04-16T08:29:22;40.78;;;21.45;;
59006;SDS011;44792;52.760;6.726;2023-04-16T08:31:53;40.63;;;20.95;;
59006;SDS011;44792;52.760;6.726;2023-04-16T08:34:19;36.58;;;21.17;;
59006;SDS011;44792;52.760;6.726;2023-04-16T08:36:45;38.53;;;20.52;;
59006;SDS011;44792;52.760;6.726;2023-04-16T08:39:11;39.33;;;19.98;;
59006;SDS011;44792;52.760;6.726;2023-04-16T08:41:37;42.88;;;21.92;;
59006;SDS011;44792;52.760;6.726;2023-04-16T08:44:07;41.72;;;21.00;;
59006;SDS011;44792;52.760;6.726;2023-04-16T08:46:36;44.80;;;20.75;;
59006;SDS011;44792;52.760;6.726;2023-04-16T08:49:04;40.28;;;21.75;;
59006;SDS011;44792;52.760;6.726;2023-04-16T08:51:33;42.05;;;20.67;;
59006;SDS011;44792;52.760;6.726;2023-04-16T08:54:20;40.10;;;20.20;;
59006;SDS011;44792;52.760;6.726;2023-04-16T08:56:54;37.00;;;19.52;;
59006;SDS011;44792;52.760;6.726;2023-04-16T08:59:22;40.00;;;19.55;;
59006;SDS011;44792;52.760;6.726;2023-04-16T09:01:49;36.65;;;20.65;;
59006;SDS011;44792;52.760;6.726;2023-04-16T09:04:16;32.15;;;17.88;;
59006;SDS011;44792;52.760;6.726;2023-04-16T09:06:45;35.35;;;17.88;;
59006;SDS011;44792;52.760;6.726;2023-04-16T09:09:12;35.60;;;19.17;;
59006;SDS011;44792;52.760;6.726;2023-04-16T09:11:40;39.35;;;19.40;;
59006;SDS011;44792;52.760;6.726;2023-04-16T09:14:08;36.00;;;18.20;;
59006;SDS011;44792;52.760;6.726;2023-04-16T09:16:35;36.08;;;18.92;;
59006;SDS011;44792;52.760;6.726;2023-04-16T09:19:01;35.63;;;18.60;;
59006;SDS011;44792;52.760;6.726;2023-04-16T09:21:26;31.23;;;17.80;;
59006;SDS011;44792;52.760;6.726;2023-04-16T09:23:52;32.83;;;17.17;;
59006;SDS011;44792;52.760;6.726;2023-04-16T09:26:18;33.45;;;16.88;;
59006;SDS011;44792;52.760;6.726;2023-04-16T09:28:45;30.67;;;16.98;;
59006;SDS011;44792;52.760;6.726;2023-04-16T09:31:12;36.35;;;17.23;;
59006;SDS011;44792;52.760;6.726;2023-04-16T09:33:40;27.83;;;16.00;;
59006;SDS011;44792;52.760;6.726;2023-04-16T09:36:07;31.75;;;17.42;;
59006;SDS011;44792;52.760;6.726;2023-04-16T09:38:46;29.42;;;16.52;;
59006;SDS011;44792;52.760;6.726;2023-04-16T09:41:12;32.33;;;17.88;;
59006;SDS011;44792;52.760;6.726;2023-04-16T09:43:40;30.02;;;16.25;;
59006;SDS011;44792;52.760;6.726;2023-04-16T09:46:13;31.60;;;17.00;;
59006;SDS011;44792;52.760;6.726;2023-04-16T09:48:39;34.70;;;16.55;;
59006;SDS011;44792;52.760;6.726;2023-04-16T09:51:05;29.38;;;15.02;;
59006;SDS011;44792;52.760;6.726;2023-04-16T09:53:31;28.75;;;15.77;;
59006;SDS011;44792;52.760;6.726;2023-04-16T09:56:01;30.08;;;15.68;;
59006;SDS011;44792;52.760;6.726;2023-04-16T09:58:29;22.00;;;15.13;;
59006;SDS011;44792;52.760;6.726;2023-04-16T10:03:31;23.15;;;15.68;;
59006;SDS011;44792;52.760;6.726;2023-04-16T10:05:58;31.40;;;15.95;;
59006;SDS011;44792;52.760;6.726;2023-04-16T10:08:41;24.45;;;15.40;;
59006;SDS011;44792;52.760;6.726;2023-04-16T10:11:14;28.08;;;15.82;;
59006;SDS011;44792;52.760;6.726;2023-04-16T10:13:41;24.52;;;15.40;;
59006;SDS011;44792;52.760;6.726;2023-04-16T10:16:07;29.65;;;14.95;;
59006;SDS011;44792;52.760;6.726;2023-04-16T10:18:34;33.58;;;17.05;;
59006;SDS011;44792;52.760;6.726;2023-04-16T10:21:02;33.80;;;17.13;;
59006;SDS011;44792;52.760;6.726;2023-04-16T10:23:28;30.42;;;15.80;;
59006;SDS011;44792;52.760;6.726;2023-04-16T10:25:54;38.80;;;18.50;;
59006;SDS011;44792;52.760;6.726;2023-04-16T10:28:22;27.98;;;15.13;;
59006;SDS011;44792;52.760;6.726;2023-04-16T10:30:49;29.88;;;15.23;;
59006;SDS011;44792;52.760;6.726;2023-04-16T10:33:23;32.28;;;17.65;;
59006;SDS011;44792;52.760;6.726;2023-04-16T10:38:30;28.35;;;14.48;;
59006;SDS011;44792;52.760;6.726;2023-04-16T10:40:57;26.55;;;15.20;;
59006;SDS011;44792;52.760;6.726;2023-04-16T10:43:24;25.45;;;15.05;;
59006;SDS011;44792;52.760;6.726;2023-04-16T10:45:51;31.23;;;16.42;;
59006;SDS011;44792;52.760;6.726;2023-04-16T10:48:18;33.97;;;15.77;;
59006;SDS011;44792;52.760;6.726;2023-04-16T10:50:53;27.65;;;15.93;;
59006;SDS011;44792;52.760;6.726;2023-04-16T10:53:25;27.83;;;15.57;;
59006;SDS011;44792;52.760;6.726;2023-04-16T10:55:55;27.02;;;15.45;;
59006;SDS011;44792;52.760;6.726;2023-04-16T10:58:41;26.08;;;14.73;;
59006;SDS011;44792;52.760;6.726;2023-04-16T11:01:10;31.00;;;15.95;;
59006;SDS011;44792;52.760;6.726;2023-04-16T11:03:41;35.58;;;16.80;;
59006;SDS011;44792;52.760;6.726;2023-04-16T11:06:14;33.53;;;17.30;;
59006;SDS011;44792;52.760;6.726;2023-04-16T11:08:44;32.53;;;15.65;;
59006;SDS011;44792;52.760;6.726;2023-04-16T11:11:11;25.85;;;14.93;;
59006;SDS011;44792;52.760;6.726;2023-04-16T11:13:37;32.33;;;15.98;;
59006;SDS011;44792;52.760;6.726;2023-04-16T11:16:07;26.42;;;14.82;;
59006;SDS011;44792;52.760;6.726;2023-04-16T11:18:33;25.10;;;14.75;;
59006;SDS011;44792;52.760;6.726;2023-04-16T11:20:59;27.80;;;13.93;;
59006;SDS011;44792;52.760;6.726;2023-04-16T11:23:25;23.90;;;13.80;;
59006;SDS011;44792;52.760;6.726;2023-04-16T11:25:51;29.08;;;14.70;;
59006;SDS011;44792;52.760;6.726;2023-04-16T11:28:30;24.48;;;15.70;;
59006;SDS011;44792;52.760;6.726;2023-04-16T11:30:57;30.30;;;15.48;;
59006;SDS011;44792;52.760;6.726;2023-04-16T11:33:24;25.95;;;13.80;;
59006;SDS011;44792;52.760;6.726;2023-04-16T11:35:55;24.75;;;13.95;;
59006;SDS011;44792;52.760;6.726;2023-04-16T11:38:31;25.95;;;13.55;;
59006;SDS011;44792;52.760;6.726;2023-04-16T11:41:00;29.65;;;15.05;;
59006;SDS011;44792;52.760;6.726;2023-04-16T11:43:27;28.38;;;14.30;;
59006;SDS011;44792;52.760;6.726;2023-04-16T11:45:56;27.15;;;13.45;;
59006;SDS011;44792;52.760;6.726;2023-04-16T11:48:23;27.88;;;14.20;;
59006;SDS011;44792;52.760;6.726;2023-04-16T11:50:58;24.98;;;13.75;;
59006;SDS011;44792;52.760;6.726;2023-04-16T11:53:23;24.30;;;14.20;;
59006;SDS011;44792;52.760;6.726;2023-04-16T11:55:49;27.48;;;14.27;;
59006;SDS011;44792;52.760;6.726;2023-04-16T11:58:15;21.40;;;13.13;;
59006;SDS011;44792;52.760;6.726;2023-04-16T12:00:41;24.80;;;14.02;;
59006;SDS011;44792;52.760;6.726;2023-04-16T12:03:07;27.67;;;14.20;;
59006;SDS011;44792;52.760;6.726;2023-04-16T12:08:02;20.45;;;12.98;;
59006;SDS011;44792;52.760;6.726;2023-04-16T12:10:29;21.05;;;13.25;;
59006;SDS011;44792;52.760;6.726;2023-04-16T12:13:14;22.55;;;13.15;;
59006;SDS011;44792;52.760;6.726;2023-04-16T12:15:51;23.25;;;12.57;;
59006;SDS011;44792;52.760;6.726;2023-04-16T12:18:19;21.15;;;11.98;;
59006;SDS011;44792;52.760;6.726;2023-04-16T12:20:47;27.05;;;13.48;;
59006;SDS011;44792;52.760;6.726;2023-04-16T12:25:55;20.58;;;12.50;;
59006;SDS011;44792;52.760;6.726;2023-04-16T12:28:26;19.13;;;11.85;;
59006;SDS011;44792;52.760;6.726;2023-04-16T12:30:53;20.88;;;11.85;;
59006;SDS011;44792;52.760;6.726;2023-04-16T12:33:20;22.10;;;12.35;;
59006;SDS011;44792;52.760;6.726;2023-04-16T12:35:46;18.67;;;11.63;;
59006;SDS011;44792;52.760;6.726;2023-04-16T12:38:11;21.95;;;11.25;;
59006;SDS011;44792;52.760;6.726;2023-04-16T12:40:39;21.60;;;11.70;;
59006;SDS011;44792;52.760;6.726;2023-04-16T12:43:05;21.20;;;11.65;;
59006;SDS011;44792;52.760;6.726;2023-04-16T12:45:31;16.85;;;10.95;;
59006;SDS011;44792;52.760;6.726;2023-04-16T12:47:56;21.52;;;11.73;;
59006;SDS011;44792;52.760;6.726;2023-04-16T12:50:22;20.23;;;11.35;;
59006;SDS011;44792;52.760;6.726;2023-04-16T12:52:48;21.38;;;12.02;;
59006;SDS011;44792;52.760;6.726;2023-04-16T12:55:13;22.40;;;11.48;;
59006;SDS011;44792;52.760;6.726;2023-04-16T12:57:39;19.75;;;12.43;;
59006;SDS011;44792;52.760;6.726;2023-04-16T13:00:05;21.60;;;12.10;;
59006;SDS011;44792;52.760;6.726;2023-04-16T13:02:34;22.25;;;11.80;;
59006;SDS011;44792;52.760;6.726;2023-04-16T13:05:00;20.48;;;11.80;;
59006;SDS011;44792;52.760;6.726;2023-04-16T13:07:26;20.30;;;12.10;;
59006;SDS011;44792;52.760;6.726;2023-04-16T13:09:53;22.58;;;12.07;;
59006;SDS011;44792;52.760;6.726;2023-04-16T13:12:18;19.42;;;11.52;;
59006;SDS011;44792;52.760;6.726;2023-04-16T13:14:44;20.45;;;12.18;;
59006;SDS011;44792;52.760;6.726;2023-04-16T13:17:10;20.27;;;10.82;;
59006;SDS011;44792;52.760;6.726;2023-04-16T13:19:36;17.63;;;11.90;;
59006;SDS011;44792;52.760;6.726;2023-04-16T13:22:01;23.63;;;11.43;;
59006;SDS011;44792;52.760;6.726;2023-04-16T13:24:27;23.33;;;12.02;;
59006;SDS011;44792;52.760;6.726;2023-04-16T13:26:54;16.65;;;10.73;;
59006;SDS011;44792;52.760;6.726;2023-04-16T13:29:20;22.05;;;10.35;;
59006;SDS011;44792;52.760;6.726;2023-04-16T13:31:47;21.58;;;11.07;;
59006;SDS011;44792;52.760;6.726;2023-04-16T13:34:13;23.52;;;11.10;;
59006;SDS011;44792;52.760;6.726;2023-04-16T13:36:38;22.95;;;11.00;;
59006;SDS011;44792;52.760;6.726;2023-04-16T13:39:04;22.80;;;10.93;;
59006;SDS011;44792;52.760;6.726;2023-04-16T13:41:34;19.20;;;10.80;;
59006;SDS011;44792;52.760;6.726;2023-04-16T13:44:03;20.75;;;10.77;;
59006;SDS011;44792;52.760;6.726;2023-04-16T13:46:28;28.13;;;11.57;;
59006;SDS011;44792;52.760;6.726;2023-04-16T13:48:54;21.45;;;12.05;;
59006;SDS011;44792;52.760;6.726;2023-04-16T13:51:20;19.50;;;11.48;;
59006;SDS011;44792;52.760;6.726;2023-04-16T13:53:46;19.77;;;11.23;;
59006;SDS011;44792;52.760;6.726;2023-04-16T13:56:12;15.80;;;11.05;;
59006;SDS011;44792;52.760;6.726;2023-04-16T13:58:38;20.15;;;10.93;;
59006;SDS011;44792;52.760;6.726;2023-04-16T14:01:05;20.58;;;11.43;;
59006;SDS011;44792;52.760;6.726;2023-04-16T14:03:31;20.27;;;10.90;;
59006;SDS011;44792;52.760;6.726;2023-04-16T14:06:00;22.10;;;11.32;;
59006;SDS011;44792;52.760;6.726;2023-04-16T14:08:26;18.52;;;11.13;;
59006;SDS011;44792;52.760;6.726;2023-04-16T14:10:52;12.95;;;8.85;;
59006;SDS011;44792;52.760;6.726;2023-04-16T14:13:17;19.38;;;11.15;;
59006;SDS011;44792;52.760;6.726;2023-04-16T14:15:43;22.00;;;12.35;;
59006;SDS011;44792;52.760;6.726;2023-04-16T14:18:09;17.52;;;10.02;;
59006;SDS011;44792;52.760;6.726;2023-04-16T14:20:35;19.23;;;11.10;;
59006;SDS011;44792;52.760;6.726;2023-04-16T14:23:00;24.85;;;11.07;;
59006;SDS011;44792;52.760;6.726;2023-04-16T14:25:26;23.58;;;11.30;;
59006;SDS011;44792;52.760;6.726;2023-04-16T14:27:52;22.25;;;11.77;;
59006;SDS011;44792;52.760;6.726;2023-04-16T14:30:19;23.17;;;11.93;;
59006;SDS011;44792;52.760;6.726;2023-04-16T14:32:45;20.75;;;12.25;;
59006;SDS011;44792;52.760;6.726;2023-04-16T14:35:10;24.35;;;11.77;;
59006;SDS011;44792;52.760;6.726;2023-04-16T14:37:36;24.25;;;10.70;;
59006;SDS011;44792;52.760;6.726;2023-04-16T14:40:03;23.02;;;11.18;;
59006;SDS011;44792;52.760;6.726;2023-04-16T14:42:32;17.90;;;9.95;;
59006;SDS011;44792;52.760;6.726;2023-04-16T14:44:57;23.90;;;11.38;;
59006;SDS011;44792;52.760;6.726;2023-04-16T14:47:24;18.77;;;11.25;;
59006;SDS011;44792;52.760;6.726;2023-04-16T14:49:49;24.20;;;12.57;;
59006;SDS011;44792;52.760;6.726;2023-04-16T14:52:15;21.23;;;12.30;;
59006;SDS011;44792;52.760;6.726;2023-04-16T14:54:41;22.27;;;11.02;;
59006;SDS011;44792;52.760;6.726;2023-04-16T14:57:07;16.08;;;9.88;;
59006;SDS011;44792;52.760;6.726;2023-04-16T14:59:32;25.85;;;11.77;;